Courtland, Alabama
Current Conditions -  °F | °C
As of 6:53 PM on Saturday 25 Oct 2014 (Local Time) from KMSL Reporting Station
Scattered Clouds Scattered Clouds  
Wind Chill: 71°   Ceiling: Unl
Heat Index: 71°   Visibility: 10mi
Dew Point: 61°   Wind: 6mph
Humidity: 70%   Direction: 230°SW
Pressure: 30.04"   Gusts: NA
Location:  34.67°N, 87.31°W
Report Text: KMSL 252353Z AUTO 23005KT 10SM FEW038 SCT055 22/16 A3004 RMK AO2 SLP171 T02170161 10278 20217 53003
Loading
Personal Weather Stations






























Interactive Weather Map
Tropical Storm Tracking
New forecast layout! Learn more

10-Day Weather Forecast

Advertisements
Track Severe Weather on mobile